createdAt,value
2018-11-13T00:00:27.385Z,101094.00
2018-11-13T00:02:56.995Z,101096.00
2018-11-13T00:05:26.770Z,101091.00
2018-11-13T00:07:55.984Z,101094.00
2018-11-13T00:10:25.250Z,101082.00
2018-11-13T00:12:54.531Z,101086.00
2018-11-13T00:15:23.692Z,101082.00
2018-11-13T00:17:52.939Z,101091.00
2018-11-13T00:20:22.216Z,101082.00
2018-11-13T00:22:51.401Z,101073.00
2018-11-13T00:25:21.170Z,101067.00
2018-11-13T00:27:50.808Z,101074.00
2018-11-13T00:30:21.293Z,101083.00
2018-11-13T00:32:50.830Z,101075.00
2018-11-13T00:35:20.824Z,101067.00
2018-11-13T00:37:50.509Z,101070.00
2018-11-13T00:40:19.777Z,101069.00
2018-11-13T00:42:49.536Z,101069.00
2018-11-13T00:45:18.986Z,101079.00
2018-11-13T00:47:48.360Z,101083.00
2018-11-13T00:50:18.922Z,101078.00
2018-11-13T00:52:48.510Z,101072.00
2018-11-13T00:55:17.754Z,101076.00
2018-11-13T00:57:48.118Z,101073.00
2018-11-13T01:00:18.596Z,101085.00
2018-11-13T01:02:47.883Z,101083.00
2018-11-13T01:05:18.314Z,101080.00
2018-11-13T01:07:48.138Z,101073.00
2018-11-13T01:10:18.624Z,101081.00
2018-11-13T01:12:48.363Z,101068.00
2018-11-13T01:15:18.755Z,101073.00
2018-11-13T01:17:48.629Z,101075.00
2018-11-13T01:20:18.519Z,101090.00
2018-11-13T01:22:47.687Z,101090.00
2018-11-13T01:25:17.429Z,101101.00
2018-11-13T01:27:46.885Z,101105.00
2018-11-13T01:30:16.725Z,101122.00
2018-11-13T01:32:46.067Z,101128.00
2018-11-13T01:35:16.570Z,101139.00
2018-11-13T01:37:45.776Z,101138.00
2018-11-13T01:40:16.394Z,101131.00
2018-11-13T01:42:45.719Z,101127.00
2018-11-13T01:45:16.072Z,101128.00
2018-11-13T01:47:45.395Z,101117.00
2018-11-13T01:50:15.111Z,101132.00
2018-11-13T01:52:44.503Z,101150.00
2018-11-13T01:55:14.966Z,101149.00
2018-11-13T01:57:44.133Z,101145.00
2018-11-13T02:00:25.570Z,101144.00
2018-11-13T02:02:55.743Z,101141.00
2018-11-13T02:05:26.129Z,101141.00
2018-11-13T02:07:56.108Z,101137.00
2018-11-13T02:10:25.337Z,101136.00
2018-11-13T02:12:54.447Z,101127.00
2018-11-13T02:15:23.645Z,101119.00
2018-11-13T02:17:52.859Z,101122.00
2018-11-13T02:20:22.847Z,101127.00
2018-11-13T02:22:52.025Z,101120.00
2018-11-13T02:25:21.608Z,101108.00
2018-11-13T02:27:51.073Z,101087.00
2018-11-13T02:30:21.598Z,101080.00
2018-11-13T02:32:50.845Z,101072.00
2018-11-13T02:35:20.147Z,101064.00
2018-11-13T02:37:49.479Z,101073.00
2018-11-13T02:40:18.719Z,101086.00
2018-11-13T02:42:47.880Z,101088.00
2018-11-13T02:45:18.331Z,101084.00
2018-11-13T02:47:47.606Z,101087.00
2018-11-13T02:50:21.046Z,101076.00
2018-11-13T02:52:50.297Z,101060.00
2018-11-13T02:55:19.439Z,101059.00
2018-11-13T02:57:48.622Z,101063.00
2018-11-13T03:00:19.258Z,101055.00
2018-11-13T03:02:48.546Z,101055.00
2018-11-13T03:05:18.922Z,101063.00
2018-11-13T03:07:48.287Z,101073.00
2018-11-13T03:10:18.535Z,101070.00
2018-11-13T03:12:47.819Z,101059.00
2018-11-13T03:15:18.204Z,101068.00
2018-11-13T03:17:47.350Z,101082.00
2018-11-13T03:20:17.786Z,101083.00
2018-11-13T03:22:47.543Z,101095.00
2018-11-13T03:25:19.020Z,101099.00
2018-11-13T03:27:48.307Z,101100.00
2018-11-13T03:30:22.595Z,101111.00
2018-11-13T03:32:52.045Z,101095.00
2018-11-13T03:35:21.264Z,101093.00
2018-11-13T03:37:50.391Z,101087.00
2018-11-13T03:40:19.649Z,101082.00
2018-11-13T03:42:49.594Z,101084.00
2018-11-13T03:45:19.126Z,101086.00
2018-11-13T03:47:48.613Z,101096.00
2018-11-13T03:50:21.201Z,101110.00
2018-11-13T03:52:50.492Z,101100.00
2018-11-13T03:55:20.237Z,101107.00
2018-11-13T03:57:49.883Z,101105.00
2018-11-13T04:00:20.496Z,101100.00
2018-11-13T04:02:49.802Z,101093.00
2018-11-13T04:05:19.893Z,101096.00
2018-11-13T04:07:50.635Z,101095.00
2018-11-13T04:10:20.616Z,101110.00
2018-11-13T04:12:49.790Z,101116.00
2018-11-13T04:15:20.550Z,101115.00
2018-11-13T04:17:49.732Z,101112.00
2018-11-13T04:20:20.052Z,101100.00
2018-11-13T04:22:49.366Z,101094.00
2018-11-13T04:25:18.602Z,101102.00
2018-11-13T04:27:47.776Z,101111.00
2018-11-13T04:30:18.225Z,101105.00
2018-11-13T04:32:47.418Z,101106.00
2018-11-13T04:35:17.590Z,101118.00
2018-11-13T04:37:46.816Z,101113.00
2018-11-13T04:40:18.161Z,101114.00
2018-11-13T04:42:48.658Z,101124.00
2018-11-13T04:45:18.919Z,101123.00
2018-11-13T04:47:49.044Z,101128.00
2018-11-13T04:50:19.601Z,101127.00
2018-11-13T04:52:48.826Z,101121.00
2018-11-13T04:55:18.386Z,101127.00
2018-11-13T04:57:48.437Z,101134.00
2018-11-13T05:00:19.926Z,101145.00
2018-11-13T05:02:49.153Z,101166.00
2018-11-13T05:05:19.266Z,101164.00
2018-11-13T05:07:49.703Z,101162.00
2018-11-13T05:10:19.042Z,101160.00
2018-11-13T05:12:48.987Z,101170.00
2018-11-13T05:15:18.254Z,101160.00
2018-11-13T05:17:47.972Z,101164.00
2018-11-13T05:20:18.093Z,101151.00
2018-11-13T05:22:47.298Z,101145.00
2018-11-13T05:25:17.848Z,101152.00
2018-11-13T05:27:47.037Z,101140.00
2018-11-13T05:30:17.839Z,101138.00
2018-11-13T05:32:47.015Z,101144.00
2018-11-13T05:35:17.221Z,101142.00
2018-11-13T05:37:46.789Z,101128.00
2018-11-13T05:40:17.637Z,101120.00
2018-11-13T05:42:47.094Z,101124.00
2018-11-13T05:45:17.577Z,101113.00
2018-11-13T05:47:48.297Z,101123.00
2018-11-13T05:50:18.176Z,101104.00
2018-11-13T05:52:50.179Z,101116.00
2018-11-13T05:55:19.465Z,101121.00
2018-11-13T05:57:49.080Z,101111.00
2018-11-13T06:00:24.308Z,101127.00
2018-11-13T06:02:53.706Z,101132.00
2018-11-13T06:05:24.015Z,101147.00
2018-11-13T06:07:53.203Z,101160.00
2018-11-13T06:10:22.367Z,101178.00
2018-11-13T06:12:52.407Z,101184.00
2018-11-13T06:15:21.948Z,101178.00
2018-11-13T06:17:51.099Z,101195.00
2018-11-13T06:20:20.280Z,101181.00
2018-11-13T06:22:49.410Z,101190.00
2018-11-13T06:25:19.088Z,101199.00
2018-11-13T06:27:49.019Z,101208.00
2018-11-13T06:30:20.619Z,101221.00
2018-11-13T06:32:50.071Z,101216.00
2018-11-13T06:35:19.090Z,101217.00
2018-11-13T06:37:48.234Z,101212.00
2018-11-13T06:40:17.431Z,101211.00
2018-11-13T06:42:46.536Z,101212.00
2018-11-13T06:45:18.455Z,101221.00
2018-11-13T06:47:48.590Z,101195.00
2018-11-13T06:50:17.769Z,101212.00
2018-11-13T06:52:48.232Z,101217.00
2018-11-13T06:55:23.048Z,101215.00
2018-11-13T06:57:52.769Z,101216.00
2018-11-13T07:00:22.626Z,101209.00
2018-11-13T07:02:52.168Z,101224.00
2018-11-13T07:05:21.679Z,101231.00
2018-11-13T07:07:51.569Z,101230.00
2018-11-13T07:10:23.655Z,101220.00
2018-11-13T07:12:54.354Z,101217.00
2018-11-13T07:15:25.017Z,101204.00
2018-11-13T07:17:56.926Z,101227.00
2018-11-13T07:20:28.024Z,101238.00
2018-11-13T07:22:57.794Z,101227.00
2018-11-13T07:25:27.502Z,101235.00
2018-11-13T07:27:57.219Z,101232.00
2018-11-13T07:30:27.335Z,101235.00
2018-11-13T07:32:56.928Z,101243.00
2018-11-13T07:35:26.797Z,101259.00
2018-11-13T07:37:59.786Z,101250.00
2018-11-13T07:40:29.447Z,101244.00
2018-11-13T07:42:59.067Z,101238.00
2018-11-13T07:45:29.039Z,101221.00
2018-11-13T07:47:59.120Z,101241.00
2018-11-13T07:50:29.041Z,101248.00
2018-11-13T07:52:59.135Z,101247.00
2018-11-13T07:55:29.298Z,101261.00
2018-11-13T07:57:59.281Z,101267.00
2018-11-13T08:00:29.255Z,101275.00
2018-11-13T08:03:38.812Z,101277.00
2018-11-13T08:06:15.695Z,101299.00
2018-11-13T08:08:46.050Z,101278.00
2018-11-13T08:11:16.035Z,101287.00
2018-11-13T08:13:45.908Z,101275.00
2018-11-13T08:16:15.775Z,101285.00
2018-11-13T08:18:45.484Z,101279.00
2018-11-13T08:21:15.424Z,101288.00
2018-11-13T08:23:45.284Z,101270.00
2018-11-13T08:26:14.713Z,101280.00
2018-11-13T08:28:44.210Z,101282.00
2018-11-13T08:31:14.033Z,101279.00
2018-11-13T08:33:44.237Z,101268.00
2018-11-13T08:36:14.282Z,101277.00
2018-11-13T08:38:44.371Z,101262.00
2018-11-13T08:41:14.185Z,101261.00
2018-11-13T08:43:44.230Z,101262.00
2018-11-13T08:46:14.298Z,101261.00
2018-11-13T08:48:44.223Z,101268.00
2018-11-13T08:51:14.243Z,101285.00
2018-11-13T08:53:44.113Z,101280.00
2018-11-13T08:56:14.166Z,101287.00
2018-11-13T08:58:44.065Z,101300.00
2018-11-13T09:01:13.939Z,101288.00
2018-11-13T09:03:43.778Z,101281.00
2018-11-13T09:06:13.375Z,101291.00
2018-11-13T09:08:43.264Z,101270.00
2018-11-13T09:11:12.742Z,101289.00
2018-11-13T09:13:42.189Z,101272.00
2018-11-13T09:16:11.755Z,101278.00
2018-11-13T09:18:41.509Z,101278.00
2018-11-13T09:21:11.359Z,101272.00
2018-11-13T09:23:41.195Z,101289.00
2018-11-13T09:26:11.860Z,101280.00
2018-11-13T09:28:47.827Z,101280.00
2018-11-13T09:31:17.694Z,101281.00
2018-11-13T09:33:47.241Z,101274.00
2018-11-13T09:36:16.681Z,101281.00
2018-11-13T09:38:46.870Z,101278.00
2018-11-13T09:41:16.643Z,101287.00
2018-11-13T09:43:46.790Z,101294.00
2018-11-13T09:46:17.013Z,101302.00
2018-11-13T09:48:46.568Z,101306.00
2018-11-13T09:51:16.795Z,101314.00
2018-11-13T09:53:46.592Z,101308.00
2018-11-13T09:56:17.211Z,101325.00
2018-11-13T09:58:47.089Z,101316.00
2018-11-13T10:01:16.964Z,101322.00
2018-11-13T10:03:46.905Z,101343.00
2018-11-13T10:06:16.471Z,101338.00
2018-11-13T10:08:46.363Z,101324.00
2018-11-13T10:11:16.600Z,101337.00
2018-11-13T10:13:46.788Z,101329.00
2018-11-13T10:16:16.675Z,101338.00
2018-11-13T10:18:46.753Z,101336.00
2018-11-13T10:21:16.609Z,101335.00
2018-11-13T10:23:46.451Z,101333.00
2018-11-13T10:26:16.715Z,101330.00
2018-11-13T10:28:46.463Z,101340.00
2018-11-13T10:31:16.581Z,101342.00
2018-11-13T10:33:46.751Z,101331.00
2018-11-13T10:36:16.662Z,101338.00
2018-11-13T10:38:46.617Z,101338.00
2018-11-13T10:41:16.010Z,101341.00
2018-11-13T10:43:45.938Z,101341.00
2018-11-13T10:46:16.004Z,101337.00
2018-11-13T10:48:46.039Z,101341.00
2018-11-13T10:51:15.902Z,101350.00
2018-11-13T10:53:45.534Z,101346.00
2018-11-13T10:56:15.038Z,101364.00
2018-11-13T10:58:44.632Z,101350.00
2018-11-13T11:01:19.283Z,101351.00
2018-11-13T11:04:01.395Z,101350.00
2018-11-13T11:06:34.350Z,101351.00
2018-11-13T11:09:04.794Z,101356.00
2018-11-13T11:11:34.762Z,101346.00
2018-11-13T11:14:04.780Z,101343.00
2018-11-13T11:16:34.096Z,101358.00
2018-11-13T11:19:04.038Z,101346.00
2018-11-13T11:21:33.966Z,101349.00
2018-11-13T11:24:04.056Z,101347.00
2018-11-13T11:26:33.860Z,101349.00
2018-11-13T11:29:03.879Z,101349.00
2018-11-13T11:31:33.886Z,101356.00
2018-11-13T11:34:04.037Z,101352.00
2018-11-13T11:36:34.221Z,101348.00
2018-11-13T11:39:04.557Z,101340.00
2018-11-13T11:41:34.553Z,101332.00
2018-11-13T11:44:04.707Z,101332.00
2018-11-13T11:46:34.577Z,101333.00
2018-11-13T11:49:04.806Z,101342.00
2018-11-13T11:51:35.484Z,101348.00
2018-11-13T11:54:06.604Z,101335.00
2018-11-13T11:56:36.960Z,101330.00
2018-11-13T11:59:06.686Z,101336.00
2018-11-13T12:01:36.726Z,101348.00
2018-11-13T12:04:06.776Z,101345.00
2018-11-13T12:06:36.749Z,101358.00
2018-11-13T12:09:09.608Z,101346.00
2018-11-13T12:11:39.986Z,101341.00
2018-11-13T12:14:09.486Z,101359.00
2018-11-13T12:16:39.994Z,101356.00
2018-11-13T12:19:09.814Z,101356.00
2018-11-13T12:21:39.554Z,101361.00
2018-11-13T12:24:09.262Z,101368.00
2018-11-13T12:26:39.100Z,101366.00
2018-11-13T12:29:09.038Z,101366.00
2018-11-13T12:31:38.597Z,101376.00
2018-11-13T12:34:08.458Z,101379.00
2018-11-13T12:36:38.155Z,101374.00
2018-11-13T12:39:09.255Z,101378.00
2018-11-13T12:41:39.290Z,101377.00
2018-11-13T12:44:09.256Z,101375.00
2018-11-13T12:46:39.464Z,101382.00
2018-11-13T12:49:09.674Z,101389.00
2018-11-13T12:51:44.427Z,101380.00
2018-11-13T12:54:14.297Z,101380.00
2018-11-13T12:56:44.210Z,101372.00
2018-11-13T12:59:13.911Z,101376.00
2018-11-13T13:01:43.565Z,101376.00
2018-11-13T13:04:13.865Z,101378.00
2018-11-13T13:06:43.719Z,101360.00
2018-11-13T13:09:13.729Z,101373.00
2018-11-13T13:11:43.450Z,101372.00
2018-11-13T13:14:15.174Z,101372.00
2018-11-13T13:16:44.606Z,101357.00
2018-11-13T13:19:14.736Z,101350.00
2018-11-13T13:21:44.606Z,101361.00
2018-11-13T13:24:14.228Z,101377.00
2018-11-13T13:26:44.130Z,101369.00
2018-11-13T13:29:13.826Z,101379.00
2018-11-13T13:31:43.642Z,101395.00
2018-11-13T13:34:13.248Z,101381.00
2018-11-13T13:36:43.162Z,101383.00
2018-11-13T13:39:13.549Z,101396.00
2018-11-13T13:41:43.116Z,101416.00
2018-11-13T13:44:13.000Z,101425.00
2018-11-13T13:46:42.928Z,101419.00
2018-11-13T13:49:13.144Z,101425.00
2018-11-13T13:51:43.636Z,101447.00
2018-11-13T13:54:13.555Z,101423.00
2018-11-13T13:56:43.272Z,101433.00
2018-11-13T13:59:13.192Z,101451.00
2018-11-13T14:01:42.895Z,101446.00
2018-11-13T14:04:13.028Z,101447.00
2018-11-13T14:06:43.506Z,101441.00
2018-11-13T14:09:13.684Z,101452.00
2018-11-13T14:11:43.015Z,101453.00
2018-11-13T14:14:12.689Z,101461.00
2018-11-13T14:16:42.768Z,101461.00
2018-11-13T14:19:12.264Z,101467.00
2018-11-13T14:21:41.748Z,101475.00
2018-11-13T14:24:11.508Z,101481.00
2018-11-13T14:26:41.380Z,101484.00
2018-11-13T14:29:12.769Z,101495.00
2018-11-13T14:31:42.394Z,101493.00
2018-11-13T14:34:13.069Z,101495.00
2018-11-13T14:36:43.260Z,101497.00
2018-11-13T14:39:13.018Z,101500.00
2018-11-13T14:41:42.582Z,101515.00
2018-11-13T14:44:12.024Z,101511.00
2018-11-13T14:46:42.112Z,101510.00
2018-11-13T14:49:12.312Z,101518.00
2018-11-13T14:51:42.385Z,101517.00
2018-11-13T14:54:12.228Z,101524.00
2018-11-13T14:56:41.950Z,101525.00
2018-11-13T14:59:11.819Z,101527.00
2018-11-13T15:01:41.837Z,101528.00
2018-11-13T15:04:11.854Z,101538.00
2018-11-13T15:06:41.865Z,101540.00
2018-11-13T15:09:12.075Z,101542.00
2018-11-13T15:11:42.010Z,101546.00
2018-11-13T15:14:12.257Z,101557.00
2018-11-13T15:16:43.490Z,101564.00
2018-11-13T15:19:13.156Z,101564.00
2018-11-13T15:21:43.154Z,101571.00
2018-11-13T15:24:13.173Z,101576.00
2018-11-13T15:26:42.692Z,101573.00
2018-11-13T15:29:12.100Z,101574.00
2018-11-13T15:31:42.094Z,101570.00
2018-11-13T15:34:12.084Z,101576.00
2018-11-13T15:36:41.561Z,101577.00
2018-11-13T15:39:12.574Z,101585.00
2018-11-13T15:41:42.038Z,101580.00
2018-11-13T15:44:11.380Z,101592.00
2018-11-13T15:46:40.884Z,101585.00
2018-11-13T15:49:10.098Z,101590.00
2018-11-13T15:51:39.387Z,101600.00
2018-11-13T15:54:08.567Z,101592.00
2018-11-13T15:56:37.945Z,101600.00
2018-11-13T15:59:07.029Z,101602.00
2018-11-13T16:01:37.366Z,101621.00
2018-11-13T16:04:06.443Z,101605.00
2018-11-13T16:06:35.663Z,101612.00
2018-11-13T16:09:08.312Z,101620.00
2018-11-13T16:11:37.604Z,101630.00
2018-11-13T16:14:07.133Z,101634.00
2018-11-13T16:16:36.329Z,101632.00
2018-11-13T16:19:05.524Z,101646.00
2018-11-13T16:21:34.704Z,101647.00
2018-11-13T16:24:04.215Z,101653.00
2018-11-13T16:26:33.950Z,101651.00
2018-11-13T16:29:03.155Z,101654.00
2018-11-13T16:31:32.430Z,101662.00
2018-11-13T16:34:01.776Z,101656.00
2018-11-13T16:36:30.973Z,101670.00
2018-11-13T16:39:00.058Z,101666.00
2018-11-13T16:41:29.121Z,101681.00
2018-11-13T16:43:58.295Z,101683.00
2018-11-13T16:46:27.859Z,101684.00
2018-11-13T16:48:57.259Z,101698.00
2018-11-13T16:51:27.060Z,101689.00
2018-11-13T16:54:01.836Z,101696.00
2018-11-13T16:56:31.792Z,101687.00
2018-11-13T16:59:01.137Z,101700.00
2018-11-13T17:01:30.337Z,101710.00
2018-11-13T17:04:00.643Z,101692.00
2018-11-13T17:06:29.978Z,101697.00
2018-11-13T17:08:59.319Z,101702.00
2018-11-13T17:11:28.711Z,101695.00
2018-11-13T17:13:57.946Z,101696.00
2018-11-13T17:16:27.359Z,101707.00
2018-11-13T17:18:57.170Z,101714.00
2018-11-13T17:21:26.517Z,101712.00
2018-11-13T17:23:55.703Z,101713.00
2018-11-13T17:26:25.380Z,101713.00
2018-11-13T17:28:54.600Z,101708.00
2018-11-13T17:31:23.957Z,101715.00
2018-11-13T17:33:55.345Z,101713.00
2018-11-13T17:36:25.028Z,101720.00
2018-11-13T17:38:54.485Z,101724.00
2018-11-13T17:41:23.980Z,101720.00
2018-11-13T17:43:53.928Z,101735.00
2018-11-13T17:46:23.767Z,101732.00
2018-11-13T17:48:52.969Z,101728.00
2018-11-13T17:51:24.051Z,101737.00
2018-11-13T17:53:53.427Z,101736.00
2018-11-13T17:56:22.643Z,101739.00
2018-11-13T17:58:51.910Z,101737.00
2018-11-13T18:01:21.337Z,101742.00
2018-11-13T18:03:53.656Z,101740.00
2018-11-13T18:06:24.475Z,101751.00
2018-11-13T18:08:53.601Z,101740.00
2018-11-13T18:11:23.055Z,101752.00
2018-11-13T18:13:52.337Z,101750.00
2018-11-13T18:16:21.825Z,101752.00
2018-11-13T18:18:53.816Z,101742.00
2018-11-13T18:21:23.087Z,101739.00
2018-11-13T18:23:52.515Z,101746.00
2018-11-13T18:26:21.891Z,101749.00
2018-11-13T18:28:51.000Z,101749.00
2018-11-13T18:31:20.352Z,101748.00
2018-11-13T18:33:49.551Z,101752.00
2018-11-13T18:36:18.878Z,101753.00
2018-11-13T18:38:48.573Z,101761.00
2018-11-13T18:41:18.002Z,101757.00
2018-11-13T18:43:47.195Z,101753.00
2018-11-13T18:46:16.941Z,101755.00
2018-11-13T18:48:46.277Z,101758.00
2018-11-13T18:51:15.907Z,101757.00
2018-11-13T18:53:45.460Z,101767.00
2018-11-13T18:56:14.722Z,101764.00
2018-11-13T18:58:43.875Z,101770.00
2018-11-13T19:01:13.170Z,101752.00
2018-11-13T19:03:42.295Z,101767.00
2018-11-13T19:06:11.433Z,101760.00
2018-11-13T19:08:40.848Z,101775.00
2018-11-13T19:11:10.016Z,101774.00
2018-11-13T19:13:39.207Z,101773.00
2018-11-13T19:16:09.853Z,101776.00
2018-11-13T19:18:39.054Z,101774.00
2018-11-13T19:21:08.314Z,101781.00
2018-11-13T19:23:37.610Z,101798.00
2018-11-13T19:26:06.880Z,101790.00
2018-11-13T19:28:36.035Z,101788.00
2018-11-13T19:31:06.588Z,101795.00
2018-11-13T19:33:35.841Z,101797.00
2018-11-13T19:36:05.206Z,101795.00
2018-11-13T19:38:34.399Z,101805.00
2018-11-13T19:41:03.725Z,101808.00
2018-11-13T19:43:33.167Z,101806.00
2018-11-13T19:46:02.582Z,101817.00
2018-11-13T19:48:31.854Z,101823.00
2018-11-13T19:51:01.272Z,101823.00
2018-11-13T19:53:30.650Z,101825.00
2018-11-13T19:56:00.480Z,101827.00
2018-11-13T19:58:29.690Z,101825.00
2018-11-13T20:00:58.951Z,101829.00
2018-11-13T20:03:28.318Z,101830.00
2018-11-13T20:05:58.022Z,101834.00
2018-11-13T20:08:28.199Z,101840.00
2018-11-13T20:10:57.561Z,101850.00
2018-11-13T20:13:27.168Z,101849.00
2018-11-13T20:15:56.944Z,101839.00
2018-11-13T20:18:27.685Z,101846.00
2018-11-13T20:20:57.200Z,101845.00
2018-11-13T20:23:26.772Z,101852.00
2018-11-13T20:25:56.018Z,101861.00
2018-11-13T20:28:26.038Z,101854.00
2018-11-13T20:30:55.491Z,101854.00
2018-11-13T20:33:25.181Z,101852.00
2018-11-13T20:35:54.591Z,101864.00
2018-11-13T20:38:24.025Z,101855.00
2018-11-13T20:40:53.228Z,101860.00
2018-11-13T20:43:22.834Z,101857.00
2018-11-13T20:45:52.386Z,101862.00
2018-11-13T20:48:21.767Z,101858.00
2018-11-13T20:50:51.379Z,101862.00
2018-11-13T20:53:20.937Z,101881.00
2018-11-13T20:55:50.200Z,101873.00
2018-11-13T20:58:20.057Z,101886.00
2018-11-13T21:00:49.438Z,101879.00
2018-11-13T21:03:18.788Z,101874.00
2018-11-13T21:05:48.181Z,101885.00
2018-11-13T21:08:17.396Z,101885.00
2018-11-13T21:10:46.930Z,101885.00
2018-11-13T21:13:16.422Z,101875.00
2018-11-13T21:15:45.906Z,101883.00
2018-11-13T21:18:15.422Z,101880.00
2018-11-13T21:20:44.858Z,101895.00
2018-11-13T21:23:16.297Z,101894.00
2018-11-13T21:25:46.252Z,101897.00
2018-11-13T21:28:15.508Z,101901.00
2018-11-13T21:30:45.059Z,101898.00
2018-11-13T21:33:14.184Z,101902.00
2018-11-13T21:35:43.322Z,101910.00
2018-11-13T21:38:12.478Z,101918.00
2018-11-13T21:40:41.776Z,101911.00
2018-11-13T21:43:11.821Z,101915.00
2018-11-13T21:45:41.868Z,101918.00
2018-11-13T21:48:11.292Z,101923.00
2018-11-13T21:50:40.937Z,101919.00
2018-11-13T21:53:10.134Z,101923.00
2018-11-13T21:55:40.046Z,101923.00
2018-11-13T21:58:09.391Z,101932.00
2018-11-13T22:00:39.732Z,101925.00
2018-11-13T22:03:09.219Z,101922.00
2018-11-13T22:05:38.583Z,101931.00
2018-11-13T22:08:08.255Z,101933.00
2018-11-13T22:10:37.669Z,101933.00
2018-11-13T22:13:07.306Z,101938.00
2018-11-13T22:15:36.730Z,101949.00
2018-11-13T22:18:06.595Z,101935.00
2018-11-13T22:20:36.270Z,101956.00
2018-11-13T22:23:05.625Z,101952.00
2018-11-13T22:25:34.875Z,101949.00
2018-11-13T22:28:04.585Z,101950.00
2018-11-13T22:30:34.260Z,101958.00
2018-11-13T22:33:03.469Z,101954.00
2018-11-13T22:35:32.896Z,101956.00
2018-11-13T22:38:02.289Z,101957.00
2018-11-13T22:40:32.284Z,101964.00
2018-11-13T22:43:01.526Z,101960.00
2018-11-13T22:45:31.386Z,101969.00
2018-11-13T22:48:01.595Z,101964.00
2018-11-13T22:50:32.294Z,101964.00
2018-11-13T22:53:01.649Z,101967.00
2018-11-13T22:55:30.954Z,101973.00
2018-11-13T22:58:01.549Z,101969.00
2018-11-13T23:00:39.661Z,101978.00
2018-11-13T23:03:10.490Z,101974.00
2018-11-13T23:05:40.338Z,101970.00
2018-11-13T23:08:10.800Z,101979.00
2018-11-13T23:10:40.251Z,101972.00
2018-11-13T23:13:09.729Z,101975.00
2018-11-13T23:15:38.987Z,101983.00
2018-11-13T23:18:08.725Z,101982.00
2018-11-13T23:20:38.062Z,101986.00
2018-11-13T23:23:07.372Z,101978.00
2018-11-13T23:25:36.543Z,101983.00
2018-11-13T23:28:06.057Z,101980.00
2018-11-13T23:30:35.444Z,101991.00
2018-11-13T23:33:04.816Z,101985.00
2018-11-13T23:35:34.351Z,101989.00
2018-11-13T23:38:04.058Z,101982.00
2018-11-13T23:40:32.973Z,101983.00
2018-11-13T23:43:02.180Z,101997.00
2018-11-13T23:45:31.368Z,101999.00
2018-11-13T23:48:00.980Z,101988.00
2018-11-13T23:50:29.941Z,102000.00
2018-11-13T23:52:59.299Z,102010.00
2018-11-13T23:55:28.817Z,102013.00
2018-11-13T23:57:58.159Z,102012.00
